createdAt,value
2023-05-17T00:02:10.691Z,100954.92
2023-05-17T00:04:39.370Z,100961.73
2023-05-17T00:07:08.057Z,100957.27
2023-05-17T00:09:37.033Z,100956.83
2023-05-17T00:12:08.313Z,100962.13
2023-05-17T00:14:36.798Z,100959.52
2023-05-17T00:17:06.025Z,100958.79
2023-05-17T00:19:34.384Z,100961.36
2023-05-17T00:22:03.210Z,100964.04
2023-05-17T00:24:31.967Z,100966.44
2023-05-17T00:27:00.634Z,100968.30
2023-05-17T00:29:28.964Z,100968.04
2023-05-17T00:31:58.051Z,100970.03
2023-05-17T00:34:26.427Z,100972.73
2023-05-17T00:36:55.124Z,100974.61
2023-05-17T00:39:23.506Z,100978.48
2023-05-17T00:41:52.202Z,100983.83
2023-05-17T00:44:21.026Z,100983.64
2023-05-17T00:46:50.985Z,100978.13
2023-05-17T00:49:20.152Z,100984.70
2023-05-17T00:51:49.131Z,100979.06
2023-05-17T00:54:18.995Z,100980.66
2023-05-17T00:56:47.811Z,100982.18
2023-05-17T00:59:18.217Z,100977.39
2023-05-17T01:01:48.638Z,100979.20
2023-05-17T01:04:17.636Z,100985.23
2023-05-17T01:06:48.449Z,100979.23
2023-05-17T01:09:17.670Z,100982.33
2023-05-17T01:11:56.869Z,100979.90
2023-05-17T01:14:47.847Z,100980.48
2023-05-17T01:17:36.266Z,100984.04
2023-05-17T01:20:15.206Z,100982.97
2023-05-17T01:22:52.325Z,100981.67
2023-05-17T01:25:51.858Z,100983.83
2023-05-17T01:28:23.573Z,100981.82
2023-05-17T01:30:52.557Z,100981.83
2023-05-17T01:33:21.937Z,100973.77
2023-05-17T01:35:50.572Z,100975.05
2023-05-17T01:38:18.948Z,100974.81
2023-05-17T01:41:08.065Z,100977.50
2023-05-17T01:43:57.154Z,100975.56
2023-05-17T01:46:48.255Z,100977.92
2023-05-17T01:49:31.633Z,100980.40
2023-05-17T01:52:09.004Z,100978.17
2023-05-17T01:54:43.922Z,100983.39
2023-05-17T01:57:15.358Z,100976.20
2023-05-17T01:59:45.949Z,100972.27
2023-05-17T02:02:14.692Z,100971.63
2023-05-17T02:04:43.093Z,100973.54
2023-05-17T02:07:11.465Z,100973.02
2023-05-17T02:09:40.035Z,100977.01
2023-05-17T02:12:09.044Z,100982.08
2023-05-17T02:14:37.429Z,100981.42
2023-05-17T02:17:06.115Z,100980.95
2023-05-17T02:19:34.829Z,100983.04
2023-05-17T02:22:03.710Z,100980.20
2023-05-17T02:24:35.270Z,100984.61
2023-05-17T02:27:04.146Z,100981.99
2023-05-17T02:29:34.145Z,100985.80
2023-05-17T02:32:02.783Z,100986.42
2023-05-17T02:34:31.573Z,100992.23
2023-05-17T02:36:59.858Z,100988.05
2023-05-17T02:39:28.031Z,100989.10
2023-05-17T02:41:56.415Z,100991.79
2023-05-17T02:44:25.929Z,100987.00
2023-05-17T02:46:55.255Z,100991.79
2023-05-17T02:49:23.930Z,100999.08
2023-05-17T02:51:52.414Z,100996.91
2023-05-17T02:54:20.793Z,101001.34
2023-05-17T02:56:49.416Z,101004.81
2023-05-17T02:59:19.424Z,101005.70
2023-05-17T03:01:49.126Z,101009.42
2023-05-17T03:04:20.550Z,101010.14
2023-05-17T03:06:51.116Z,101011.88
2023-05-17T03:09:21.128Z,101011.34
2023-05-17T03:11:51.965Z,101019.24
2023-05-17T03:14:24.762Z,101021.17
2023-05-17T03:16:53.078Z,101012.58
2023-05-17T03:19:21.626Z,101017.07
2023-05-17T03:21:51.851Z,101018.41
2023-05-17T03:24:20.640Z,101018.91
2023-05-17T03:26:49.534Z,101018.62
2023-05-17T03:29:18.774Z,101022.20
2023-05-17T03:31:47.743Z,101027.18
2023-05-17T03:34:17.380Z,101030.64
2023-05-17T03:36:46.154Z,101035.92
2023-05-17T03:39:14.575Z,101041.77
2023-05-17T03:41:44.256Z,101045.02
2023-05-17T03:44:12.640Z,101050.89
2023-05-17T03:46:41.456Z,101052.09
2023-05-17T03:49:11.425Z,101053.05
2023-05-17T03:51:40.449Z,101055.15
2023-05-17T03:54:08.640Z,101054.30
2023-05-17T03:56:37.019Z,101048.60
2023-05-17T03:59:05.497Z,101047.98
2023-05-17T04:01:34.395Z,101043.46
2023-05-17T04:04:04.594Z,101039.08
2023-05-17T04:06:33.511Z,101043.21
2023-05-17T04:09:02.410Z,101037.01
2023-05-17T04:11:30.698Z,101039.63
2023-05-17T04:14:00.318Z,101043.80
2023-05-17T04:16:28.793Z,101041.59
2023-05-17T04:18:57.430Z,101038.65
2023-05-17T04:21:26.096Z,101043.65
2023-05-17T04:23:54.679Z,101042.14
2023-05-17T04:26:25.804Z,101045.08
2023-05-17T04:28:55.024Z,101042.55
2023-05-17T04:31:24.218Z,101042.71
2023-05-17T04:33:52.763Z,101042.50
2023-05-17T04:36:21.849Z,101042.75
2023-05-17T04:38:50.497Z,101045.05
2023-05-17T04:41:23.795Z,101044.55
2023-05-17T04:43:52.389Z,101048.11
2023-05-17T04:46:26.924Z,101048.29
2023-05-17T04:48:56.688Z,101053.71
2023-05-17T04:51:27.291Z,101055.67
2023-05-17T04:53:56.368Z,101058.71
2023-05-17T04:56:24.950Z,101060.31
2023-05-17T04:58:53.993Z,101067.11
2023-05-17T05:01:22.745Z,101072.67
2023-05-17T05:03:51.974Z,101075.30
2023-05-17T05:06:22.369Z,101075.07
2023-05-17T05:08:51.331Z,101073.81
2023-05-17T05:11:19.654Z,101074.91
2023-05-17T05:13:48.049Z,101076.02
2023-05-17T05:16:16.532Z,101071.75
2023-05-17T05:18:45.371Z,101072.85
2023-05-17T05:21:15.058Z,101075.25
2023-05-17T05:23:43.538Z,101077.80
2023-05-17T05:26:12.744Z,101079.85
2023-05-17T05:28:41.642Z,101078.91
2023-05-17T05:31:10.418Z,101078.44
2023-05-17T05:33:43.743Z,101076.61
2023-05-17T05:36:12.401Z,101077.39
2023-05-17T05:38:40.808Z,101078.44
2023-05-17T05:41:09.484Z,101077.08
2023-05-17T05:43:38.294Z,101079.46
2023-05-17T05:46:08.347Z,101078.13
2023-05-17T05:48:39.686Z,101076.62
2023-05-17T05:51:08.536Z,101080.71
2023-05-17T05:53:38.568Z,101079.34
2023-05-17T05:56:07.363Z,101081.81
2023-05-17T05:58:35.590Z,101084.10
2023-05-17T06:01:06.406Z,101082.90
2023-05-17T06:03:35.170Z,101084.96
2023-05-17T06:06:06.687Z,101089.52
2023-05-17T06:08:37.960Z,101095.08
2023-05-17T06:11:06.319Z,101095.42
2023-05-17T06:13:36.645Z,101093.52
2023-05-17T06:16:06.620Z,101095.39
2023-05-17T06:18:35.349Z,101096.48
2023-05-17T06:21:03.945Z,101096.80
2023-05-17T06:23:32.920Z,101099.25
2023-05-17T06:26:01.612Z,101099.78
2023-05-17T06:28:30.692Z,101099.98
2023-05-17T06:30:58.979Z,101101.40
2023-05-17T06:33:27.430Z,101103.81
2023-05-17T06:35:58.040Z,101101.88
2023-05-17T06:38:27.098Z,101104.67
2023-05-17T06:40:55.743Z,101107.55
2023-05-17T06:43:24.258Z,101104.13
2023-05-17T06:45:52.540Z,101105.54
2023-05-17T06:48:21.393Z,101109.05
2023-05-17T06:50:50.282Z,101112.73
2023-05-17T06:53:18.667Z,101113.08
2023-05-17T06:55:47.158Z,101116.63
2023-05-17T06:58:15.387Z,101125.00
2023-05-17T07:00:43.994Z,101118.11
2023-05-17T07:03:15.265Z,101119.02
2023-05-17T07:05:43.927Z,101118.96
2023-05-17T07:08:12.197Z,101121.66
2023-05-17T07:10:40.340Z,101124.91
2023-05-17T07:13:08.501Z,101118.90
2023-05-17T07:15:36.873Z,101121.36
2023-05-17T07:18:05.350Z,101122.92
2023-05-17T07:20:34.136Z,101121.98
2023-05-17T07:23:03.081Z,101127.14
2023-05-17T07:25:31.838Z,101123.19
2023-05-17T07:28:01.049Z,101123.58
2023-05-17T07:30:29.407Z,101121.78
2023-05-17T07:32:57.926Z,101124.38
2023-05-17T07:35:26.305Z,101122.28
2023-05-17T07:37:54.966Z,101128.77
2023-05-17T07:40:23.250Z,101125.66
2023-05-17T07:42:51.853Z,101122.38
2023-05-17T07:45:21.281Z,101127.33
2023-05-17T07:47:50.048Z,101130.27
2023-05-17T07:50:18.645Z,101130.40
2023-05-17T07:52:49.679Z,101132.47
2023-05-17T07:55:18.193Z,101138.29
2023-05-17T07:57:47.935Z,101137.63
2023-05-17T08:00:19.393Z,101138.80
2023-05-17T08:02:50.715Z,101138.11
2023-05-17T08:05:19.378Z,101143.15
2023-05-17T08:07:47.767Z,101138.41
2023-05-17T08:10:16.666Z,101135.70
2023-05-17T08:12:48.965Z,101139.91
2023-05-17T08:15:17.326Z,101133.98
2023-05-17T08:17:45.819Z,101134.45
2023-05-17T08:20:14.382Z,101137.77
2023-05-17T08:22:42.769Z,101136.83
2023-05-17T08:25:11.580Z,101139.59
2023-05-17T08:27:41.384Z,101133.65
2023-05-17T08:30:14.843Z,101137.15
2023-05-17T08:32:46.705Z,101138.98
2023-05-17T08:35:15.548Z,101136.67
2023-05-17T08:37:43.829Z,101133.67
2023-05-17T08:40:12.363Z,101135.55
2023-05-17T08:42:41.975Z,101132.24
2023-05-17T08:45:12.161Z,101131.49
2023-05-17T08:47:43.451Z,101130.12
2023-05-17T08:50:13.164Z,101128.01
2023-05-17T08:52:44.956Z,101130.53
2023-05-17T08:55:16.748Z,101130.39
2023-05-17T08:57:45.324Z,101126.73
2023-05-17T09:00:20.173Z,101129.42
2023-05-17T09:02:49.424Z,101127.62
2023-05-17T09:05:18.249Z,101126.59
2023-05-17T09:07:48.613Z,101123.91
2023-05-17T09:10:17.700Z,101120.58
2023-05-17T09:12:46.382Z,101121.52
2023-05-17T09:15:18.257Z,101124.02
2023-05-17T09:17:57.098Z,101118.58
2023-05-17T09:20:34.559Z,101122.38
2023-05-17T09:23:07.852Z,101120.77
2023-05-17T09:25:37.314Z,101123.91
2023-05-17T09:28:10.352Z,101120.20
2023-05-17T09:30:39.814Z,101122.95
2023-05-17T09:33:09.994Z,101123.84
2023-05-17T09:35:39.164Z,101126.63
2023-05-17T09:38:09.814Z,101120.64
2023-05-17T09:40:43.069Z,101117.55
2023-05-17T09:43:12.561Z,101115.92
2023-05-17T09:45:41.444Z,101116.36
2023-05-17T09:48:16.910Z,101112.63
2023-05-17T09:50:50.708Z,101113.41
2023-05-17T09:53:40.177Z,101110.30
2023-05-17T09:56:10.560Z,101108.04
2023-05-17T09:58:39.171Z,101104.52
2023-05-17T10:01:09.205Z,101104.23
2023-05-17T10:03:38.592Z,101102.77
2023-05-17T10:06:13.345Z,101097.65
2023-05-17T10:08:51.286Z,101098.83
2023-05-17T10:11:24.743Z,101095.64
2023-05-17T10:14:06.001Z,101092.59
2023-05-17T10:16:34.837Z,101094.34
2023-05-17T10:19:06.355Z,101093.36
2023-05-17T10:21:35.750Z,101090.27
2023-05-17T10:24:04.670Z,101087.20
2023-05-17T10:26:33.780Z,101087.30
2023-05-17T10:29:03.940Z,101087.72
2023-05-17T10:31:34.483Z,101089.04
2023-05-17T10:34:05.383Z,101082.37
2023-05-17T10:36:34.382Z,101082.48
2023-05-17T10:39:03.276Z,101081.54
2023-05-17T10:41:34.763Z,101080.34
2023-05-17T10:44:06.214Z,101080.17
2023-05-17T10:46:37.066Z,101079.10
2023-05-17T10:49:05.872Z,101081.27
2023-05-17T10:51:37.981Z,101084.66
2023-05-17T10:54:08.653Z,101084.18
2023-05-17T10:56:41.709Z,101083.29
2023-05-17T10:59:17.243Z,101078.67
2023-05-17T11:02:05.599Z,101079.40
2023-05-17T11:04:39.146Z,101077.36
2023-05-17T11:07:17.308Z,101071.13
2023-05-17T11:09:49.796Z,101074.33
2023-05-17T11:12:33.886Z,101074.86
2023-05-17T11:15:17.403Z,101073.82
2023-05-17T11:17:53.618Z,101071.81
2023-05-17T11:20:28.303Z,101073.93
2023-05-17T11:23:02.596Z,101069.31
2023-05-17T11:25:35.983Z,101070.15
2023-05-17T11:28:10.305Z,101063.64
2023-05-17T11:30:43.658Z,101058.39
2023-05-17T11:33:24.935Z,101058.92
2023-05-17T11:36:23.249Z,101055.91
2023-05-17T11:39:11.506Z,101048.60
2023-05-17T11:41:49.369Z,101042.46
2023-05-17T11:44:30.059Z,101044.42
2023-05-17T11:47:09.085Z,101041.83
2023-05-17T11:49:39.434Z,101040.16
2023-05-17T11:52:08.693Z,101041.06
2023-05-17T11:54:41.279Z,101046.42
2023-05-17T11:57:13.131Z,101040.86
2023-05-17T11:59:41.744Z,101033.09
2023-05-17T12:02:13.086Z,101034.15
2023-05-17T12:04:41.507Z,101028.91
2023-05-17T12:07:11.087Z,101027.70
2023-05-17T12:09:40.546Z,101023.05
2023-05-17T12:12:09.190Z,101019.73
2023-05-17T12:14:37.793Z,101013.67
2023-05-17T12:17:09.583Z,101010.14
2023-05-17T12:19:38.166Z,101005.65
2023-05-17T12:22:14.177Z,101003.92
2023-05-17T12:24:43.871Z,100998.27
2023-05-17T12:27:12.879Z,101000.30
2023-05-17T12:29:41.582Z,100993.24
2023-05-17T12:32:11.079Z,100992.89
2023-05-17T12:34:39.774Z,100989.11
2023-05-17T12:37:11.058Z,100980.35
2023-05-17T12:39:40.514Z,100977.56
2023-05-17T12:42:10.140Z,100976.44
2023-05-17T12:44:39.347Z,100973.64
2023-05-17T12:47:10.071Z,100969.73
2023-05-17T12:49:40.230Z,100967.25
2023-05-17T12:52:10.490Z,100964.05
2023-05-17T12:54:40.080Z,100961.64
2023-05-17T12:57:14.256Z,100962.30
2023-05-17T12:59:50.133Z,100958.08
2023-05-17T13:02:22.508Z,100955.80
2023-05-17T13:04:50.908Z,100957.99
2023-05-17T13:07:26.354Z,100947.92
2023-05-17T13:09:54.616Z,100947.73
2023-05-17T13:12:24.640Z,100947.59
2023-05-17T13:14:55.072Z,100946.48
2023-05-17T13:17:34.752Z,100945.70
2023-05-17T13:20:05.349Z,100950.73
2023-05-17T13:22:35.094Z,100949.42
2023-05-17T13:25:03.761Z,100948.12
2023-05-17T13:27:32.137Z,100951.19
2023-05-17T13:30:00.862Z,100949.11
2023-05-17T13:32:29.930Z,100948.67
2023-05-17T13:34:58.235Z,100945.00
2023-05-17T13:37:26.917Z,100945.84
2023-05-17T13:39:56.409Z,100952.94
2023-05-17T13:42:24.915Z,100948.81
2023-05-17T13:44:53.198Z,100949.18
2023-05-17T13:47:23.252Z,100945.07
2023-05-17T13:49:51.899Z,100950.80
2023-05-17T13:52:20.288Z,100953.95
2023-05-17T13:54:48.903Z,100953.02
2023-05-17T13:57:17.660Z,100948.73
2023-05-17T13:59:46.062Z,100947.97
2023-05-17T14:02:17.536Z,100949.68
2023-05-17T14:04:48.557Z,100943.64
2023-05-17T14:07:16.928Z,100943.71
2023-05-17T14:09:49.109Z,100936.02
2023-05-17T14:12:17.688Z,100934.12
2023-05-17T14:14:46.105Z,100937.59
2023-05-17T14:17:15.699Z,100928.27
2023-05-17T14:19:44.481Z,100930.71
2023-05-17T14:22:13.974Z,100932.15
2023-05-17T14:24:45.032Z,100932.19
2023-05-17T14:27:13.632Z,100928.88
2023-05-17T14:29:42.790Z,100927.81
2023-05-17T14:32:13.155Z,100925.09
2023-05-17T14:34:41.438Z,100923.42
2023-05-17T14:37:10.572Z,100917.50
2023-05-17T14:39:38.858Z,100916.70
2023-05-17T14:42:07.314Z,100914.61
2023-05-17T14:44:40.091Z,100910.26
2023-05-17T14:47:11.171Z,100911.62
2023-05-17T14:49:39.673Z,100913.21
2023-05-17T14:52:10.976Z,100913.23
2023-05-17T14:54:41.248Z,100917.17
2023-05-17T14:57:12.318Z,100911.21
2023-05-17T14:59:45.262Z,100910.97
2023-05-17T15:02:14.309Z,100910.01
2023-05-17T15:04:48.755Z,100910.39
2023-05-17T15:07:20.482Z,100907.77
2023-05-17T15:09:51.568Z,100906.70
2023-05-17T15:12:19.948Z,100905.13
2023-05-17T15:14:48.740Z,100903.70
2023-05-17T15:17:16.959Z,100900.55
2023-05-17T15:19:47.398Z,100902.11
2023-05-17T15:22:15.980Z,100900.50
2023-05-17T15:24:45.368Z,100900.05
2023-05-17T15:27:16.491Z,100899.55
2023-05-17T15:29:44.831Z,100901.56
2023-05-17T15:32:13.273Z,100897.89
2023-05-17T15:34:41.652Z,100899.78
2023-05-17T15:37:09.835Z,100901.23
2023-05-17T15:39:37.936Z,100897.99
2023-05-17T15:42:06.506Z,100898.35
2023-05-17T15:44:34.984Z,100897.80
2023-05-17T15:47:03.626Z,100898.58
2023-05-17T15:49:32.250Z,100896.56
2023-05-17T15:52:00.668Z,100894.90
2023-05-17T15:54:28.795Z,100895.23
2023-05-17T15:56:57.158Z,100893.92
2023-05-17T15:59:25.822Z,100896.66
2023-05-17T16:01:54.293Z,100894.33
2023-05-17T16:04:22.690Z,100895.52
2023-05-17T16:06:51.206Z,100896.45
2023-05-17T16:09:19.456Z,100896.33
2023-05-17T16:11:47.626Z,100901.81
2023-05-17T16:14:17.643Z,100906.89
2023-05-17T16:16:47.995Z,100904.27
2023-05-17T16:19:20.103Z,100909.78
2023-05-17T16:21:50.787Z,100903.52
2023-05-17T16:24:21.731Z,100912.76
2023-05-17T16:26:51.666Z,100910.45
2023-05-17T16:29:20.029Z,100908.85
2023-05-17T16:31:53.387Z,100912.14
2023-05-17T16:34:21.656Z,100912.48
2023-05-17T16:36:50.813Z,100911.36
2023-05-17T16:39:19.038Z,100912.20
2023-05-17T16:41:47.280Z,100908.11
2023-05-17T16:44:15.406Z,100907.92
2023-05-17T16:46:44.391Z,100912.96
2023-05-17T16:49:14.578Z,100910.94
2023-05-17T16:51:42.971Z,100912.66
2023-05-17T16:54:11.239Z,100912.80
2023-05-17T16:56:39.540Z,100915.89
2023-05-17T16:59:08.008Z,100915.70
2023-05-17T17:01:36.990Z,100915.65
2023-05-17T17:04:06.347Z,100917.60
2023-05-17T17:06:34.765Z,100918.48
2023-05-17T17:09:07.770Z,100917.73
2023-05-17T17:11:36.592Z,100915.86
2023-05-17T17:14:05.794Z,100918.27
2023-05-17T17:16:34.239Z,100916.65
2023-05-17T17:19:02.655Z,100914.06
2023-05-17T17:21:36.507Z,100917.48
2023-05-17T17:24:08.597Z,100923.46
2023-05-17T17:26:38.791Z,100918.83
2023-05-17T17:29:08.556Z,100922.19
2023-05-17T17:31:37.087Z,100923.69
2023-05-17T17:34:08.546Z,100928.93
2023-05-17T17:36:37.011Z,100930.11
2023-05-17T17:39:05.403Z,100930.16
2023-05-17T17:41:34.118Z,100931.95
2023-05-17T17:44:02.575Z,100932.79
2023-05-17T17:46:30.996Z,100934.87
2023-05-17T17:48:59.451Z,100936.70
2023-05-17T17:51:27.778Z,100937.79
2023-05-17T17:53:56.176Z,100938.86
2023-05-17T17:56:25.946Z,100940.77
2023-05-17T17:58:56.114Z,100941.25
2023-05-17T18:01:29.918Z,100941.67
2023-05-17T18:03:58.953Z,100940.06
2023-05-17T18:06:27.557Z,100940.00
2023-05-17T18:08:56.651Z,100944.11
2023-05-17T18:11:24.840Z,100944.37
2023-05-17T18:13:53.061Z,100945.89
2023-05-17T18:16:21.400Z,100950.45
2023-05-17T18:18:49.815Z,100952.36
2023-05-17T18:21:18.276Z,100956.30
2023-05-17T18:23:46.572Z,100963.22
2023-05-17T18:26:14.865Z,100965.71
2023-05-17T18:28:43.372Z,100967.27
2023-05-17T18:31:11.994Z,100963.48
2023-05-17T18:33:40.605Z,100967.55
2023-05-17T18:36:09.601Z,100975.69
2023-05-17T18:38:40.545Z,100972.27
2023-05-17T18:41:08.824Z,100972.13
2023-05-17T18:43:37.137Z,100970.99
2023-05-17T18:46:05.797Z,100971.98
2023-05-17T18:48:36.855Z,100974.31
2023-05-17T18:51:07.004Z,100974.23
2023-05-17T18:53:37.974Z,100972.88
2023-05-17T18:56:06.820Z,100967.55
2023-05-17T18:58:34.999Z,100966.02
2023-05-17T19:01:03.514Z,100968.50
2023-05-17T19:03:32.172Z,100966.84
2023-05-17T19:06:00.811Z,100967.71
2023-05-17T19:08:29.451Z,100969.46
2023-05-17T19:10:57.935Z,100973.61
2023-05-17T19:13:29.589Z,100976.27
2023-05-17T19:15:57.781Z,100978.48
2023-05-17T19:18:26.357Z,100977.18
2023-05-17T19:20:54.637Z,100978.02
2023-05-17T19:23:23.278Z,100982.10
2023-05-17T19:25:53.595Z,100985.59
2023-05-17T19:28:22.149Z,100986.75
2023-05-17T19:30:50.838Z,100988.23
2023-05-17T19:33:19.122Z,100985.45
2023-05-17T19:35:47.508Z,100984.70
2023-05-17T19:38:16.200Z,100982.87
2023-05-17T19:40:44.791Z,100984.11
2023-05-17T19:43:12.964Z,100982.64
2023-05-17T19:45:42.777Z,100987.10
2023-05-17T19:48:12.400Z,100987.72
2023-05-17T19:50:41.202Z,100988.83
2023-05-17T19:53:09.886Z,100990.33
2023-05-17T19:55:40.207Z,100989.72
2023-05-17T19:58:08.710Z,100987.80
2023-05-17T20:00:38.410Z,100983.98
2023-05-17T20:03:07.005Z,100984.51
2023-05-17T20:05:35.915Z,100984.45
2023-05-17T20:08:06.591Z,100986.23
2023-05-17T20:10:35.303Z,100986.90
2023-05-17T20:13:03.712Z,100992.09
2023-05-17T20:15:32.198Z,100992.16
2023-05-17T20:18:00.650Z,100992.11
2023-05-17T20:20:29.816Z,100993.06
2023-05-17T20:22:58.510Z,100996.59
2023-05-17T20:25:27.623Z,100991.90
2023-05-17T20:27:56.371Z,100993.84
2023-05-17T20:30:24.853Z,100996.17
2023-05-17T20:32:53.678Z,100994.73
2023-05-17T20:35:24.919Z,100997.69
2023-05-17T20:37:53.394Z,101001.34
2023-05-17T20:40:21.485Z,101001.39
2023-05-17T20:42:49.648Z,101000.02
2023-05-17T20:45:18.014Z,101000.14
2023-05-17T20:47:46.536Z,100999.27
2023-05-17T20:50:15.646Z,100997.41
2023-05-17T20:52:44.107Z,101000.70
2023-05-17T20:55:12.387Z,101001.35
2023-05-17T20:57:42.118Z,100997.60
2023-05-17T21:00:12.091Z,101001.86
2023-05-17T21:02:41.079Z,101004.67
2023-05-17T21:05:10.977Z,101004.86
2023-05-17T21:07:39.540Z,101007.79
2023-05-17T21:10:09.139Z,101011.12
2023-05-17T21:12:39.786Z,101011.25
2023-05-17T21:17:43.490Z,101010.44
2023-05-17T21:20:12.773Z,101015.20
2023-05-17T21:22:43.442Z,101019.19
2023-05-17T21:25:12.032Z,101018.30
2023-05-17T21:27:41.133Z,101019.59
2023-05-17T21:30:10.760Z,101021.09
2023-05-17T21:32:38.983Z,101021.11
2023-05-17T21:35:07.992Z,101026.33
2023-05-17T21:37:39.951Z,101021.45
2023-05-17T21:40:09.863Z,101026.31
2023-05-17T21:42:38.414Z,101017.54
2023-05-17T21:45:07.711Z,101020.94
2023-05-17T21:47:36.314Z,101027.94
2023-05-17T21:50:05.494Z,101025.86
2023-05-17T21:52:36.037Z,101028.58
2023-05-17T21:55:05.220Z,101024.86
2023-05-17T21:57:36.476Z,101029.40
2023-05-17T22:00:08.075Z,101030.11
2023-05-17T22:02:36.723Z,101033.11
2023-05-17T22:05:05.869Z,101040.98
2023-05-17T22:07:34.108Z,101039.39
2023-05-17T22:10:03.269Z,101042.03
2023-05-17T22:12:35.297Z,101046.30
2023-05-17T22:15:04.476Z,101040.99
2023-05-17T22:17:43.311Z,101042.85
2023-05-17T22:20:27.145Z,101044.62
2023-05-17T22:22:55.369Z,101048.41
2023-05-17T22:25:23.825Z,101048.77
2023-05-17T22:27:52.763Z,101045.52
2023-05-17T22:30:21.503Z,101046.66
2023-05-17T22:32:49.865Z,101049.56
2023-05-17T22:35:18.507Z,101052.60
2023-05-17T22:37:46.638Z,101046.42
2023-05-17T22:40:14.860Z,101047.62
2023-05-17T22:42:43.329Z,101047.45
2023-05-17T22:45:14.728Z,101042.16
2023-05-17T22:47:43.698Z,101045.02
2023-05-17T22:50:14.731Z,101038.79
2023-05-17T22:52:43.534Z,101039.10
2023-05-17T22:55:11.948Z,101039.96
2023-05-17T22:57:40.199Z,101039.96
2023-05-17T23:00:11.866Z,101046.15
2023-05-17T23:02:40.628Z,101045.23
2023-05-17T23:05:11.261Z,101043.85
2023-05-17T23:07:41.389Z,101043.58
2023-05-17T23:10:11.090Z,101029.84
2023-05-17T23:12:39.405Z,101037.91
2023-05-17T23:15:09.495Z,101033.57
2023-05-17T23:17:39.353Z,101028.73
2023-05-17T23:20:09.993Z,101031.80
2023-05-17T23:22:39.403Z,101033.89
2023-05-17T23:25:08.112Z,101037.17
2023-05-17T23:27:36.589Z,101040.17
2023-05-17T23:30:06.049Z,101040.35
2023-05-17T23:32:35.048Z,101041.11
2023-05-17T23:35:04.024Z,101041.44
2023-05-17T23:37:33.543Z,101045.55
2023-05-17T23:40:02.657Z,101047.92
2023-05-17T23:42:32.194Z,101050.02
2023-05-17T23:45:00.807Z,101049.80
2023-05-17T23:47:29.220Z,101053.10
2023-05-17T23:49:57.953Z,101056.11
2023-05-17T23:52:30.105Z,101064.68
2023-05-17T23:54:59.227Z,101068.52
2023-05-17T23:57:27.560Z,101071.98
2023-05-17T23:59:56.400Z,101067.75
